Time;durP1;ratioP1;P1;durP2;ratioP2;P2;SDS_P1;SDS_P2;PMS_P1;PMS_P2;Temp;Humidity;BMP_temperature;BMP_pressure;BME280_temperature;BME280_humidity;BME280_pressure;Samples;Min_cycle;Max_cycle;Signal;HPM_P1;HPM_P2
2023/10/09 00:01:17;;;;;;;0.45;0.45;;;11.90;1.00;;;;;;5032625;28;20054;-73
2023/10/09 00:03:53;;;;;;;0.70;0.70;;;11.90;1.00;;;;;;5030999;28;20037;-73
2023/10/09 00:06:37;;;;;;;0.35;0.35;;;11.90;1.00;;;;;;5043867;28;20052;-73
2023/10/09 00:11:56;;;;;;;0.90;0.50;;;11.90;1.00;;;;;;5030242;28;20489;-73
2023/10/09 00:14:30;;;;;;;1.08;0.82;;;11.90;1.00;;;;;;5031353;28;20048;-74
2023/10/09 00:17:17;;;;;;;7.07;1.17;;;11.90;1.00;;;;;;5044866;28;20053;-73
2023/10/09 00:19:47;;;;;;;1.30;0.93;;;11.80;1.00;;;;;;5027343;28;20045;-79
2023/10/09 00:24:56;;;;;;;0.85;0.85;;;11.80;1.00;;;;;;5026436;28;20033;-72
2023/10/09 00:27:23;;;;;;;7.78;1.27;;;11.90;1.00;;;;;;5031069;28;20036;-73
2023/10/09 00:29:54;;;;;;;1.30;0.93;;;11.90;1.00;;;;;;5030875;28;20041;-76
2023/10/09 00:32:26;;;;;;;;;;;11.90;1.00;;;;;;5027365;28;20038;-73
2023/10/09 00:34:53;;;;;;;1.40;1.23;;;11.90;1.00;;;;;;5029417;28;19932;-72
2023/10/09 00:37:23;;;;;;;0.95;0.90;;;11.90;1.00;;;;;;5031373;28;20060;-72
2023/10/09 00:39:55;;;;;;;1.20;0.95;;;11.90;1.00;;;;;;5044703;28;20148;-72
2023/10/09 00:42:29;;;;;;;0.98;0.77;;;11.90;1.00;;;;;;5028524;28;20045;-73
2023/10/09 00:45:04;;;;;;;0.70;0.70;;;11.90;1.00;;;;;;5044480;28;20064;-73
2023/10/09 00:47:34;;;;;;;1.30;1.02;;;12.00;1.00;;;;;;5027771;28;20057;-72
2023/10/09 00:50:21;;;;;;;0.75;0.68;;;12.00;1.00;;;;;;5030062;28;20033;-72
2023/10/09 00:53:02;;;;;;;0.85;0.85;;;12.10;1.00;;;;;;5031486;28;20052;-72
2023/10/09 00:55:56;;;;;;;1.27;1.17;;;12.10;1.00;;;;;;5027920;28;20048;-74
2023/10/09 00:58:26;;;;;;;0.88;0.75;;;12.10;1.00;;;;;;5027714;28;20045;-73
2023/10/09 01:00:53;;;;;;;2.65;0.95;;;12.20;1.00;;;;;;5027652;28;20053;-73
2023/10/09 01:03:21;;;;;;;0.57;0.47;;;12.20;1.00;;;;;;5029828;28;20038;-73
2023/10/09 01:11:29;;;;;;;1.30;0.68;;;12.20;1.00;;;;;;5029599;28;20041;-72
2023/10/09 01:14:10;;;;;;;1.55;0.77;;;12.20;1.00;;;;;;5027854;28;20041;-72
2023/10/09 01:16:37;;;;;;;3.58;1.40;;;12.20;1.00;;;;;;5029123;28;20403;-73
2023/10/09 01:19:12;;;;;;;1.80;1.30;;;12.30;1.00;;;;;;5028247;28;20033;-74
2023/10/09 01:21:42;;;;;;;2.33;1.80;;;12.30;1.00;;;;;;5029196;28;20049;-73
2023/10/09 01:24:08;;;;;;;0.40;0.40;;;12.30;1.00;;;;;;5029289;28;20367;-72
2023/10/09 01:26:45;;;;;;;5.10;1.92;;;12.30;1.00;;;;;;5029397;28;20482;-72
2023/10/09 01:29:14;;;;;;;3.55;0.98;;;12.30;1.00;;;;;;5028464;28;20418;-72
2023/10/09 01:31:56;;;;;;;0.82;0.82;;;12.40;1.00;;;;;;5031177;28;20125;-73
2023/10/09 01:37:22;;;;;;;2.00;0.77;;;12.50;1.00;;;;;;5028762;28;20052;-72
2023/10/09 01:39:50;;;;;;;0.90;0.90;;;12.50;1.00;;;;;;5028877;28;20034;-76
2023/10/09 01:42:31;;;;;;;2.42;1.00;;;12.50;1.00;;;;;;5030066;28;20363;-73
2023/10/09 01:44:58;;;;;;;0.63;0.63;;;12.60;1.00;;;;;;5029115;28;20398;-72
2023/10/09 01:47:25;;;;;;;1.83;1.35;;;12.60;99.90;;;;;;5030094;28;20487;-72
2023/10/09 01:49:57;;;;;;;1.20;0.95;;;12.70;99.90;;;;;;5030116;28;20070;-74
2023/10/09 01:52:24;;;;;;;5.93;1.52;;;12.70;99.90;;;;;;5029751;28;20138;-73
2023/10/09 01:54:51;;;;;;;1.53;1.23;;;12.70;99.90;;;;;;5028614;28;20052;-74
2023/10/09 01:57:22;;;;;;;0.35;0.35;;;12.70;99.90;;;;;;5028956;28;20046;-73
2023/10/09 01:59:52;;;;;;;3.03;1.42;;;12.60;99.90;;;;;;5032751;28;20037;-79
2023/10/09 02:02:26;;;;;;;0.50;0.50;;;12.70;99.90;;;;;;5027018;28;20041;-73
2023/10/09 02:05:25;;;;;;;2.85;1.00;;;12.70;99.90;;;;;;5027985;28;20033;-74
2023/10/09 02:07:51;;;;;;;0.65;0.32;;;12.80;99.90;;;;;;5029223;28;20040;-73
2023/10/09 02:12:59;;;;;;;1.40;1.30;;;12.90;99.90;;;;;;5029863;28;20033;-73
2023/10/09 02:26:08;;;;;;;1.00;0.93;;;13.20;99.90;;;;;;5019470;28;20033;-73
2023/10/09 02:28:35;;;;;;;0.82;0.77;;;13.20;99.90;;;;;;5029901;28;20034;-73
2023/10/09 02:31:12;;;;;;;0.98;0.75;;;13.20;99.90;;;;;;5028245;28;20042;-73
2023/10/09 02:33:39;;;;;;;0.93;0.93;;;13.20;99.90;;;;;;5032521;28;20512;-74
2023/10/09 02:36:09;;;;;;;2.50;1.42;;;13.10;99.90;;;;;;5031772;28;20033;-74
2023/10/09 02:38:38;;;;;;;;;;;13.10;99.90;;;;;;5032725;28;20459;-73
2023/10/09 02:43:44;;;;;;;2.58;1.15;;;13.00;99.90;;;;;;5031999;28;20037;-76
2023/10/09 02:46:18;;;;;;;0.40;0.40;;;12.90;99.90;;;;;;5029208;28;20040;-73
2023/10/09 02:48:47;;;;;;;2.25;0.93;;;12.80;99.90;;;;;;5030072;28;20045;-73
2023/10/09 02:51:31;;;;;;;1.08;1.00;;;12.80;99.90;;;;;;5031569;28;20022;-73
2023/10/09 02:56:55;;;;;;;1.85;1.27;;;12.70;99.90;;;;;;5032436;28;20120;-73
2023/10/09 02:59:22;;;;;;;1.75;0.90;;;12.70;99.90;;;;;;5029557;28;20042;-73
2023/10/09 03:01:49;;;;;;;1.17;0.43;;;12.70;99.90;;;;;;5031092;28;20045;-73
2023/10/09 03:04:15;;;;;;;2.97;0.80;;;12.70;99.90;;;;;;5031921;28;20045;-73
2023/10/09 03:06:51;;;;;;;0.40;0.40;;;12.70;99.90;;;;;;5032274;28;20482;-73
2023/10/09 03:09:18;;;;;;;1.58;1.00;;;12.60;99.90;;;;;;5031783;28;20029;-73
2023/10/09 03:11:47;;;;;;;0.20;0.20;;;12.60;99.90;;;;;;5031907;28;20048;-73
2023/10/09 03:14:16;;;;;;;1.63;0.77;;;12.50;99.90;;;;;;5031988;28;20029;-73
2023/10/09 03:16:43;;;;;;;1.38;1.10;;;12.50;99.90;;;;;;5028263;28;20052;-74
2023/10/09 03:19:13;;;;;;;1.08;1.00;;;12.60;99.90;;;;;;5030110;28;20025;-73
2023/10/09 03:21:39;;;;;;;14.15;2.38;;;12.50;99.90;;;;;;5030977;28;20042;-73
2023/10/09 03:24:08;;;;;;;3.45;1.20;;;12.50;99.90;;;;;;5031423;28;20041;-72
2023/10/09 03:26:34;;;;;;;1.75;0.93;;;12.60;99.90;;;;;;5031065;28;20394;-74
2023/10/09 03:29:01;;;;;;;2.05;1.35;;;12.50;99.90;;;;;;5032158;28;20360;-72
2023/10/09 03:31:31;;;;;;;0.30;0.30;;;12.50;99.90;;;;;;5047689;28;20048;-73
2023/10/09 03:33:57;;;;;;;5.20;2.28;;;12.50;99.90;;;;;;5028907;28;20033;-73
2023/10/09 03:36:26;;;;;;;0.50;0.50;;;12.50;99.90;;;;;;5030337;28;20524;-73
2023/10/09 03:38:57;;;;;;;0.95;0.57;;;12.50;99.90;;;;;;5031880;28;20044;-75
2023/10/09 03:41:29;;;;;;;2.22;0.60;;;12.50;99.90;;;;;;5030716;28;20386;-73
2023/10/09 03:43:55;;;;;;;1.85;1.52;;;12.50;99.90;;;;;;5029785;28;20034;-81
2023/10/09 03:46:26;;;;;;;2.97;1.85;;;12.50;99.90;;;;;;5029965;28;20033;-73
2023/10/09 03:48:56;;;;;;;0.90;0.73;;;12.50;99.90;;;;;;5031493;28;20029;-73
2023/10/09 03:51:22;;;;;;;0.93;0.90;;;12.50;99.90;;;;;;5031137;28;20052;-73
2023/10/09 03:53:49;;;;;;;0.65;0.65;;;12.50;99.90;;;;;;5031920;28;20540;-73
2023/10/09 03:56:16;;;;;;;2.50;0.77;;;12.50;99.90;;;;;;5029894;28;20049;-73
2023/10/09 03:58:44;;;;;;;0.25;0.25;;;12.50;99.90;;;;;;5031682;28;20033;-73
2023/10/09 04:03:59;;;;;;;1.25;0.98;;;12.50;99.90;;;;;;5029873;28;20041;-73
2023/10/09 04:06:37;;;;;;;1.20;1.10;;;12.50;99.90;;;;;;5028278;28;20064;-73
2023/10/09 04:14:54;;;;;;;7.38;2.40;;;12.50;99.90;;;;;;5030025;28;19909;-73
2023/10/09 04:17:34;;;;;;;0.93;0.93;;;12.60;99.90;;;;;;5029724;28;20470;-73
2023/10/09 04:22:59;;;;;;;5.25;1.95;;;12.60;99.90;;;;;;5030100;28;20036;-72
2023/10/09 04:25:27;;;;;;;0.77;0.50;;;12.60;99.90;;;;;;5027515;28;20037;-72
2023/10/09 04:28:11;;;;;;;2.17;1.88;;;12.60;99.90;;;;;;5029927;28;20030;-72
2023/10/09 04:30:46;;;;;;;6.00;1.17;;;12.60;99.90;;;;;;5030260;28;20029;-74
2023/10/09 04:36:21;;;;;;;1.48;1.38;;;12.60;99.90;;;;;;5026104;28;20056;-75
2023/10/09 04:41:32;;;;;;;1.17;1.13;;;12.70;99.90;;;;;;5031068;28;20041;-75
2023/10/09 04:44:18;;;;;;;1.63;0.82;;;12.60;99.90;;;;;;5027643;28;20045;-75
2023/10/09 04:52:51;;;;;;;2.92;1.25;;;12.50;99.90;;;;;;5031794;28;20042;-75
2023/10/09 05:00:22;;;;;;;0.10;0.10;;;12.60;99.90;;;;;;5027720;28;20064;-75
2023/10/09 05:02:54;;;;;;;1.60;1.50;;;12.70;99.90;;;;;;5024722;28;20034;-74
2023/10/09 05:05:58;;;;;;;0.60;0.60;;;12.70;99.90;;;;;;5027691;28;20025;-74
2023/10/09 05:08:21;;;;;;;10.77;3.15;;;12.80;99.90;;;;;;5029007;28;20060;-75
2023/10/09 05:16:19;;;;;;;1.05;0.65;;;12.60;99.90;;;;;;5027596;28;20044;-74
2023/10/09 05:18:55;;;;;;;2.75;1.65;;;12.60;99.90;;;;;;5029263;28;20360;-75
2023/10/09 05:21:44;;;;;;;1.35;0.70;;;12.60;99.90;;;;;;5028825;28;20036;-75
2023/10/09 05:35:07;;;;;;;6.95;4.20;;;12.60;99.90;;;;;;5030091;28;20037;-74
2023/10/09 05:37:33;;;;;;;1.98;0.85;;;12.60;99.90;;;;;;5027666;28;20038;-73
2023/10/09 05:42:44;;;;;;;1.88;1.15;;;12.60;99.90;;;;;;5029727;28;20033;-75
2023/10/09 05:51:10;;;;;;;3.80;2.42;;;12.70;99.90;;;;;;5029882;28;20030;-75
2023/10/09 06:04:49;;;;;;;2.10;1.38;;;12.90;99.90;;;;;;5028419;28;20025;-74
2023/10/09 06:07:22;;;;;;;0.65;0.65;;;12.90;99.90;;;;;;5030356;28;20041;-74
2023/10/09 06:09:55;;;;;;;5.07;3.13;;;13.00;99.90;;;;;;5034121;28;20038;-74
2023/10/09 06:12:49;;;;;;;1.35;0.98;;;13.00;99.90;;;;;;5028728;28;20045;-76
2023/10/09 06:15:32;;;;;;;1.60;1.48;;;13.00;99.90;;;;;;5030422;28;20040;-76
2023/10/09 06:18:25;;;;;;;1.52;1.05;;;13.10;99.90;;;;;;5033464;28;20045;-76
2023/10/09 06:21:07;;;;;;;3.42;2.10;;;13.20;99.90;;;;;;5033914;28;20034;-76
2023/10/09 06:26:25;;;;;;;1.70;1.23;;;13.20;99.90;;;;;;5029931;28;20041;-73
2023/10/09 06:29:14;;;;;;;2.05;1.60;;;13.20;99.90;;;;;;5032652;28;20057;-75
2023/10/09 06:34:32;;;;;;;0.73;0.70;;;13.30;96.20;;;;;;5028224;28;20038;-74
2023/10/09 06:37:06;;;;;;;2.67;1.65;;;13.30;95.80;;;;;;5029376;28;20052;-75
2023/10/09 06:45:17;;;;;;;2.47;1.33;;;13.50;62.40;;;;;;5030682;28;20030;-75
2023/10/09 06:47:55;;;;;;;0.60;0.60;;;13.50;63.70;;;;;;5029868;28;20033;-74
2023/10/09 06:50:25;;;;;;;2.38;1.40;;;13.50;57.90;;;;;;5031682;28;20198;-75
2023/10/09 06:53:58;;;;;;;1.85;1.20;;;13.60;53.40;;;;;;5030594;28;20044;-75
2023/10/09 06:55:48;;;;;;;2.03;0.55;;;13.60;40.60;;;;;;5030185;28;20044;-75
2023/10/09 06:58:22;;;;;;;1.33;1.20;;;13.70;38.30;;;;;;5030698;28;20029;-75
2023/10/09 07:01:19;;;;;;;2.13;0.77;;;13.70;31.00;;;;;;5031964;28;20459;-76
2023/10/09 07:03:51;;;;;;;0.82;0.63;;;13.80;18.00;;;;;;5030946;28;20041;-76
2023/10/09 07:06:24;;;;;;;1.40;1.07;;;13.90;9.60;;;;;;5031146;28;20401;-74
2023/10/09 07:17:04;;;;;;;2.13;1.40;;;14.20;1.00;;;;;;5032146;28;20052;-76
2023/10/09 07:22:03;;;;;;;0.90;0.52;;;14.30;1.00;;;;;;5032568;28;20502;-76
2023/10/09 07:24:43;;;;;;;4.90;2.20;;;14.40;1.00;;;;;;5032181;28;20037;-76
2023/10/09 07:27:13;;;;;;;1.67;1.30;;;14.40;1.00;;;;;;5031976;28;20394;-75
2023/10/09 07:29:49;;;;;;;2.85;2.08;;;14.40;1.00;;;;;;5031306;28;20034;-76
2023/10/09 07:32:22;;;;;;;0.88;0.88;;;14.40;1.00;;;;;;5031882;28;20038;-76
2023/10/09 07:34:58;;;;;;;15.52;2.65;;;14.50;1.00;;;;;;5030206;28;20037;-76
2023/10/09 07:37:34;;;;;;;3.17;1.88;;;14.60;1.00;;;;;;5030668;28;20583;-76
2023/10/09 07:40:08;;;;;;;1.20;1.15;;;14.70;1.00;;;;;;5031116;28;20037;-77
2023/10/09 07:50:38;;;;;;;3.47;1.92;;;15.10;99.90;;;;;;5031266;28;20326;-76
2023/10/09 07:56:06;;;;;;;17.83;2.67;;;15.20;99.90;;;;;;5027391;28;20033;-76
2023/10/09 07:58:45;;;;;;;4.22;2.20;;;15.30;99.90;;;;;;5028261;28;20037;-76
2023/10/09 08:01:16;;;;;;;2.17;1.90;;;15.40;99.90;;;;;;5028625;28;20050;-76
2023/10/09 08:03:45;;;;;;;2.58;1.20;;;15.30;99.90;;;;;;5047428;28;20030;-77
2023/10/09 08:17:20;;;;;;;1.30;1.20;;;15.50;99.90;;;;;;5030978;28;20049;-77
2023/10/09 08:19:54;;;;;;;4.55;1.33;;;15.70;99.90;;;;;;5030515;28;20037;-76
2023/10/09 08:24:57;;;;;;;1.38;1.23;;;16.00;99.90;;;;;;5027516;28;20388;-77
2023/10/09 08:30:28;;;;;;;5.20;3.10;;;16.30;99.90;;;;;;5028789;28;20454;-76
2023/10/09 08:33:40;;;;;;;0.75;0.68;;;16.50;99.90;;;;;;5030089;28;20033;-77
2023/10/09 08:35:50;;;;;;;2.28;1.05;;;16.70;99.90;;;;;;5027756;28;20078;-76
2023/10/09 08:38:23;;;;;;;2.88;1.70;;;16.90;99.90;;;;;;5030623;28;20040;-76
2023/10/09 08:40:58;;;;;;;0.88;0.88;;;17.00;99.90;;;;;;5031418;28;20049;-76
2023/10/09 08:43:24;;;;;;;3.20;1.38;;;17.10;99.90;;;;;;5029321;28;20034;-76
2023/10/09 08:46:00;;;;;;;11.70;1.65;;;17.20;87.20;;;;;;5030430;28;20040;-76
2023/10/09 08:48:28;;;;;;;0.13;0.13;;;17.30;88.50;;;;;;5029617;28;20056;-76
2023/10/09 08:50:55;;;;;;;1.17;0.77;;;17.50;56.70;;;;;;5029629;28;20044;-77
2023/10/09 08:53:27;;;;;;;1.10;0.85;;;17.70;49.80;;;;;;5029975;28;20025;-76
2023/10/09 08:55:55;;;;;;;0.88;0.73;;;17.70;32.80;;;;;;5027544;28;20045;-76
2023/10/09 08:58:28;;;;;;;1.00;0.60;;;17.80;39.20;;;;;;5029418;28;20439;-76
2023/10/09 09:00:58;;;;;;;0.43;0.43;;;17.90;15.10;;;;;;5030763;28;20593;-77
2023/10/09 09:03:25;;;;;;;2.60;1.13;;;18.00;8.70;;;;;;5030506;28;20045;-77
2023/10/09 09:06:02;;;;;;;6.90;1.77;;;18.00;10.90;;;;;;5028223;28;20052;-77
2023/10/09 09:08:31;;;;;;;3.63;2.22;;;18.10;1.00;;;;;;5024895;28;20048;-77
2023/10/09 09:11:23;;;;;;;1.17;1.08;;;18.20;1.00;;;;;;5030413;28;20040;-76
2023/10/09 09:14:05;;;;;;;0.47;0.25;;;18.30;1.00;;;;;;5029069;28;20048;-75
2023/10/09 09:16:35;;;;;;;0.98;0.50;;;18.40;1.00;;;;;;5013163;28;20060;-77
2023/10/09 09:19:05;;;;;;;0.60;0.57;;;18.50;1.00;;;;;;5029613;28;20025;-76
2023/10/09 09:21:43;;;;;;;1.52;1.42;;;18.60;1.00;;;;;;5029243;28;20033;-76
2023/10/09 09:27:00;;;;;;;0.57;0.57;;;18.70;1.00;;;;;;5027855;28;20450;-76
2023/10/09 09:29:38;;;;;;;1.95;0.93;;;18.70;1.00;;;;;;5027582;28;20030;-76
2023/10/09 09:32:17;;;;;;;5.22;0.70;;;18.60;1.00;;;;;;5029839;28;20025;-77
2023/10/09 09:34:54;;;;;;;1.75;0.73;;;18.60;1.00;;;;;;5028328;28;20033;-77
2023/10/09 09:37:28;;;;;;;0.47;0.35;;;18.60;1.00;;;;;;5028058;28;20046;-79
2023/10/09 09:40:14;;;;;;;1.80;1.17;;;18.70;1.00;;;;;;5028747;28;20575;-76
2023/10/09 09:42:48;;;;;;;6.40;1.83;;;18.90;1.00;;;;;;5032074;28;20037;-76
2023/10/09 09:45:14;;;;;;;1.83;0.82;;;19.10;1.00;;;;;;5032705;28;20033;-76
2023/10/09 09:47:51;;;;;;;0.10;0.10;;;19.20;1.00;;;;;;5032767;28;20040;-76
2023/10/09 09:50:29;;;;;;;2.22;1.17;;;19.40;1.00;;;;;;5032545;28;20037;-75
2023/10/09 09:52:56;;;;;;;0.63;0.52;;;19.50;1.00;;;;;;5035967;28;20034;-76
2023/10/09 09:55:32;;;;;;;1.23;0.88;;;19.50;1.00;;;;;;5033162;28;20030;-76
2023/10/09 09:58:01;;;;;;;2.53;1.73;;;19.50;1.00;;;;;;5025819;28;20398;-76
2023/10/09 10:03:12;;;;;;;5.68;1.23;;;19.20;1.00;;;;;;5033528;28;20049;-78
2023/10/09 10:05:42;;;;;;;5.25;0.70;;;19.10;1.00;;;;;;5035820;28;20391;-77
2023/10/09 10:08:13;;;;;;;0.85;0.73;;;19.10;1.00;;;;;;5034240;28;20390;-77
2023/10/09 10:10:52;;;;;;;5.32;4.82;;;19.10;1.00;;;;;;5030754;28;20033;-76
2023/10/09 10:13:41;;;;;;;4.38;2.88;;;19.10;1.00;;;;;;5031424;28;20386;-76
2023/10/09 10:16:20;;;;;;;0.17;0.17;;;19.10;1.00;;;;;;5032988;28;20060;-76
2023/10/09 10:21:53;;;;;;;1.40;1.20;;;19.20;1.00;;;;;;5027334;28;20049;-76
2023/10/09 10:24:28;;;;;;;3.78;2.00;;;19.30;1.00;;;;;;5032641;28;20029;-81
2023/10/09 10:27:18;;;;;;;1.83;1.48;;;19.30;1.00;;;;;;5033273;28;20467;-78
2023/10/09 10:29:46;;;;;;;4.18;3.47;;;19.40;1.00;;;;;;5033676;28;20064;-77
2023/10/09 10:32:12;;;;;;;3.58;3.25;;;19.50;1.00;;;;;;5033135;28;20505;-77
2023/10/09 10:34:57;;;;;;;3.90;1.02;;;19.50;1.00;;;;;;5031659;28;20038;-76
2023/10/09 10:37:51;;;;;;;2.13;1.65;;;19.50;1.00;;;;;;5031331;28;20050;-77
2023/10/09 10:40:41;;;;;;;0.55;0.55;;;19.80;5.50;;;;;;5033453;28;20461;-77
2023/10/09 10:43:32;;;;;;;0.50;0.43;;;20.00;1.00;;;;;;5033975;28;20041;-76
2023/10/09 10:46:13;;;;;;;1.27;1.17;;;20.20;1.00;;;;;;5033149;28;20382;-76
2023/10/09 10:48:46;;;;;;;0.98;0.65;;;20.30;1.00;;;;;;5046217;28;20037;-77
2023/10/09 10:51:14;;;;;;;12.43;0.60;;;20.40;1.00;;;;;;5042494;28;20049;-76
2023/10/09 10:53:57;;;;;;;0.93;0.68;;;20.40;1.00;;;;;;5038093;28;20038;-76
2023/10/09 10:56:49;;;;;;;12.88;1.45;;;20.40;1.00;;;;;;5030913;28;20033;-76
2023/10/09 10:59:11;;;;;;;1.50;1.40;;;20.40;99.90;;;;;;5033070;28;20533;-76
2023/10/09 11:01:53;;;;;;;0.10;0.10;;;20.50;1.00;;;;;;5028351;28;20045;-77
2023/10/09 11:07:12;;;;;;;1.10;1.00;;;20.80;99.90;;;;;;5032344;28;20041;-76
2023/10/09 11:12:38;;;;;;;3.42;1.58;;;21.00;99.90;;;;;;5031641;28;20033;-76
2023/10/09 11:15:07;;;;;;;0.68;0.68;;;21.10;99.90;;;;;;5029869;28;20348;-76
2023/10/09 11:17:35;;;;;;;3.30;0.85;;;21.20;99.90;;;;;;5031130;28;20041;-76
2023/10/09 11:25:39;;;;;;;8.18;1.50;;;21.00;99.90;;;;;;5030725;28;20474;-76
2023/10/09 11:31:16;;;;;;;13.30;1.25;;;21.10;99.90;;;;;;5032209;28;20053;-76
2023/10/09 11:33:51;;;;;;;0.63;0.50;;;21.20;99.90;;;;;;5033557;28;20025;-76
2023/10/09 11:36:31;;;;;;;3.08;2.83;;;21.30;99.90;;;;;;5024664;28;20033;-76
2023/10/09 11:39:17;;;;;;;13.88;5.72;;;21.40;99.90;;;;;;5031729;28;20041;-76
2023/10/09 11:41:44;;;;;;;4.03;3.53;;;21.50;99.90;;;;;;5031898;28;20044;-76
2023/10/09 11:44:23;;;;;;;3.95;3.65;;;21.60;99.90;;;;;;5030087;28;20042;-82
2023/10/09 11:47:21;;;;;;;2.70;2.10;;;21.60;99.90;;;;;;5033524;28;20038;-76
2023/10/09 11:52:35;;;;;;;0.73;0.73;;;21.60;99.90;;;;;;5030968;28;20060;-77
2023/10/09 11:55:14;;;;;;;1.52;1.08;;;21.50;99.90;;;;;;5029508;28;20045;-78
2023/10/09 11:57:41;;;;;;;0.40;0.33;;;21.60;99.90;;;;;;5031486;28;20049;-77
2023/10/09 12:00:25;;;;;;;2.28;1.35;;;21.70;99.90;;;;;;5031817;28;20053;-76
2023/10/09 12:02:52;;;;;;;2.70;1.40;;;21.90;99.90;;;;;;5031943;28;20053;-78
2023/10/09 12:05:18;;;;;;;0.82;0.63;;;22.00;99.90;;;;;;5029946;28;20021;-76
2023/10/09 12:07:54;;;;;;;2.50;1.55;;;22.10;99.90;;;;;;5032048;28;20045;-77
2023/10/09 12:10:26;;;;;;;5.68;1.13;;;22.30;99.90;;;;;;5031440;28;20033;-79
2023/10/09 12:12:53;;;;;;;0.40;0.40;;;22.30;99.90;;;;;;5028186;28;20037;-78
2023/10/09 12:15:20;;;;;;;1.23;0.82;;;22.30;99.90;;;;;;5028429;28;20030;-81
2023/10/09 12:17:47;;;;;;;1.88;1.13;;;22.50;99.90;;;;;;5030553;28;20042;-79
2023/10/09 12:20:32;;;;;;;1.02;1.02;;;22.50;95.70;;;;;;5031702;28;20044;-78
2023/10/09 12:22:59;;;;;;;0.32;0.32;;;22.50;96.70;;;;;;5030613;28;20040;-79
2023/10/09 12:25:26;;;;;;;10.77;8.35;;;22.70;97.70;;;;;;5030572;28;20053;-80
2023/10/09 12:27:57;;;;;;;1.88;1.77;;;22.80;84.30;;;;;;5031718;28;20037;-79
2023/10/09 12:30:29;;;;;;;0.40;0.40;;;22.70;95.20;;;;;;5021775;28;20030;-79
2023/10/09 12:32:57;;;;;;;1.05;1.05;;;22.60;99.90;;;;;;5040310;28;20047;-79
2023/10/09 12:35:24;;;;;;;1.60;0.95;;;22.80;97.30;;;;;;5029870;28;20033;-79
2023/10/09 12:37:54;;;;;;;0.85;0.55;;;22.90;45.50;;;;;;5027708;28;20521;-79
2023/10/09 12:40:28;;;;;;;0.55;0.55;;;23.10;51.90;;;;;;5030370;28;20085;-78
2023/10/09 12:42:58;;;;;;;0.30;0.30;;;23.40;64.60;;;;;;5029920;28;20037;-77
2023/10/09 12:45:32;;;;;;;1.55;1.15;;;23.60;1.00;;;;;;5026800;28;20034;-77
2023/10/09 12:47:59;;;;;;;3.70;0.85;;;23.80;1.00;;;;;;5031196;28;20037;-78
2023/10/09 12:50:29;;;;;;;0.93;0.90;;;23.80;1.00;;;;;;5030727;28;20482;-78
2023/10/09 12:52:57;;;;;;;0.45;0.45;;;23.90;1.00;;;;;;5046184;28;20045;-78
2023/10/09 12:55:31;;;;;;;0.30;0.30;;;23.80;1.00;;;;;;5028718;28;20273;-78
2023/10/09 12:58:09;;;;;;;0.45;0.45;;;24.00;1.00;;;;;;5030359;28;20479;-77
2023/10/09 13:00:44;;;;;;;0.50;0.50;;;24.10;1.00;;;;;;5029928;28;20049;-77
2023/10/09 13:03:17;;;;;;;0.43;0.43;;;24.40;1.00;;;;;;5029016;28;20042;-77
2023/10/09 13:05:58;;;;;;;0.38;0.38;;;24.50;1.00;;;;;;5029007;28;20378;-77
2023/10/09 13:08:39;;;;;;;0.77;0.77;;;24.50;1.00;;;;;;5028560;28;20404;-77
2023/10/09 13:11:10;;;;;;;0.98;0.85;;;24.40;1.00;;;;;;5031304;28;20400;-77
2023/10/09 13:13:50;;;;;;;2.05;0.90;;;24.50;1.00;;;;;;5028321;28;20148;-78
2023/10/09 13:16:24;;;;;;;0.85;0.52;;;24.60;1.00;;;;;;5028882;28;20041;-78
2023/10/09 13:18:55;;;;;;;1.05;0.73;;;24.70;99.90;;;;;;5031094;28;20053;-78
2023/10/09 13:21:24;;;;;;;0.77;0.77;;;24.70;1.00;;;;;;5029481;28;20041;-78
2023/10/09 13:23:51;;;;;;;1.33;0.90;;;24.90;1.00;;;;;;5029669;28;20386;-78
2023/10/09 13:26:18;;;;;;;0.30;0.30;;;24.90;1.00;;;;;;5029636;28;20037;-79
2023/10/09 13:28:46;;;;;;;1.13;0.50;;;24.80;1.00;;;;;;5030797;28;20049;-78
2023/10/09 13:31:14;;;;;;;0.10;0.10;;;24.60;1.00;;;;;;5032816;28;20060;-79
2023/10/09 13:33:42;;;;;;;2.53;1.25;;;24.50;1.00;;;;;;5029263;28;20042;-78
2023/10/09 13:36:19;;;;;;;0.57;0.57;;;24.60;1.00;;;;;;5027486;28;20423;-79
2023/10/09 13:38:46;;;;;;;11.43;3.35;;;24.60;1.00;;;;;;5028899;28;20041;-78
2023/10/09 13:41:12;;;;;;;2.20;0.75;;;24.60;1.00;;;;;;5029322;28;20390;-78
2023/10/09 13:43:43;;;;;;;6.32;1.67;;;24.70;99.90;;;;;;5033661;28;20037;-77
2023/10/09 13:46:11;;;;;;;1.63;0.85;;;24.70;99.90;;;;;;5028925;28;20060;-78
2023/10/09 13:48:41;;;;;;;1.05;0.95;;;24.60;99.90;;;;;;5029333;28;20044;-78
2023/10/09 13:51:13;;;;;;;1.27;0.75;;;24.60;99.90;;;;;;5030874;28;20029;-77
2023/10/09 13:53:44;;;;;;;3.42;1.45;;;24.70;99.90;;;;;;5028790;28;20477;-77
2023/10/09 13:56:14;;;;;;;0.35;0.35;;;24.80;99.90;;;;;;5028321;28;20052;-77
2023/10/09 13:58:44;;;;;;;2.25;0.57;;;24.80;99.90;;;;;;5031007;28;20339;-78
2023/10/09 14:01:10;;;;;;;5.05;1.08;;;24.80;99.90;;;;;;5030802;28;20068;-78
2023/10/09 14:03:38;;;;;;;1.08;0.98;;;24.60;99.90;;;;;;5028754;28;20045;-78
2023/10/09 14:06:12;;;;;;;1.40;1.30;;;24.70;99.90;;;;;;5029636;28;20034;-77
2023/10/09 14:08:44;;;;;;;1.30;1.20;;;24.80;99.90;;;;;;5028987;28;20040;-76
2023/10/09 14:11:13;;;;;;;0.28;0.28;;;24.90;99.90;;;;;;5027201;28;20033;-77
2023/10/09 14:13:42;;;;;;;2.70;1.95;;;25.00;99.90;;;;;;5025834;28;20101;-77
2023/10/09 14:16:23;;;;;;;1.73;0.43;;;25.10;99.90;;;;;;5029199;28;20029;-76
2023/10/09 14:19:00;;;;;;;0.20;0.20;;;25.00;99.90;;;;;;5028460;28;20045;-76
2023/10/09 14:21:37;;;;;;;0.70;0.60;;;24.90;99.90;;;;;;5029315;28;20044;-77
2023/10/09 14:24:17;;;;;;;1.95;1.20;;;24.80;99.90;;;;;;5042368;28;20041;-78
2023/10/09 14:26:48;;;;;;;;;;;24.80;99.90;;;;;;5029572;28;20048;-81
2023/10/09 14:29:16;;;;;;;0.20;0.20;;;24.70;99.90;;;;;;5031238;28;19916;-80
2023/10/09 14:31:49;;;;;;;2.58;0.82;;;24.70;99.90;;;;;;5045176;28;20061;-77
2023/10/09 14:34:15;;;;;;;2.10;1.67;;;24.60;99.90;;;;;;5030033;28;20029;-83
2023/10/09 14:36:43;;;;;;;0.73;0.65;;;24.60;99.90;;;;;;5040776;28;20076;-81
2023/10/09 14:39:18;;;;;;;1.15;1.05;;;24.50;99.90;;;;;;5011844;28;20072;-79
2023/10/09 14:41:45;;;;;;;1.10;1.00;;;24.60;1.00;;;;;;5046834;28;20037;-81
2023/10/09 14:44:16;;;;;;;1.25;0.73;;;24.50;99.90;;;;;;5030056;28;20045;-81
2023/10/09 14:46:42;;;;;;;1.48;1.27;;;24.50;1.00;;;;;;5032265;28;20040;-80
2023/10/09 14:49:13;;;;;;;1.02;0.90;;;24.50;1.00;;;;;;5045394;28;20041;-80
2023/10/09 14:51:39;;;;;;;1.80;1.05;;;24.60;99.90;;;;;;5032127;28;20378;-81
2023/10/09 14:54:07;;;;;;;1.00;0.90;;;24.60;99.90;;;;;;5031277;28;20037;-81
2023/10/09 14:56:36;;;;;;;2.40;0.80;;;24.70;99.90;;;;;;5032863;28;20060;-82
2023/10/09 14:59:02;;;;;;;1.20;0.65;;;24.70;99.90;;;;;;5033602;28;20053;-81
2023/10/09 15:01:30;;;;;;;1.65;0.63;;;24.90;99.90;;;;;;5031570;28;20033;-81
2023/10/09 15:04:00;;;;;;;1.65;1.08;;;24.90;1.00;;;;;;5031239;28;20041;-81
2023/10/09 15:06:30;;;;;;;0.57;0.50;;;24.90;99.90;;;;;;5031748;28;20048;-81
2023/10/09 15:08:57;;;;;;;;;;;24.80;99.90;;;;;;5031991;28;20037;-81
2023/10/09 15:11:25;;;;;;;0.40;0.40;;;24.80;99.90;;;;;;5030649;28;19909;-77
2023/10/09 15:13:53;;;;;;;0.95;0.82;;;24.60;99.90;;;;;;5032596;28;20044;-79
2023/10/09 15:16:21;;;;;;;0.93;0.93;;;24.60;99.90;;;;;;5031347;28;20455;-79
2023/10/09 15:18:52;;;;;;;3.97;1.20;;;24.70;99.90;;;;;;5032217;28;20076;-81
2023/10/09 15:21:23;;;;;;;1.35;1.00;;;24.70;99.90;;;;;;5032120;28;20037;-79
2023/10/09 15:23:51;;;;;;;0.50;0.50;;;24.70;1.00;;;;;;5032799;28;20041;-82
2023/10/09 15:26:18;;;;;;;1.52;0.60;;;24.50;99.90;;;;;;5033828;28;20029;-81
2023/10/09 15:28:44;;;;;;;1.88;1.15;;;24.50;99.90;;;;;;5037925;28;20029;-81
2023/10/09 15:31:11;;;;;;;1.20;1.00;;;24.40;99.90;;;;;;5036727;28;20042;-80
2023/10/09 15:33:39;;;;;;;0.40;0.38;;;24.30;99.90;;;;;;5033004;28;20038;-81
2023/10/09 15:36:13;;;;;;;0.90;0.90;;;24.30;99.90;;;;;;5030652;28;20030;-83
2023/10/09 15:38:39;;;;;;;1.38;0.98;;;24.30;1.00;;;;;;5027139;28;20045;-81
2023/10/09 15:41:06;;;;;;;0.68;0.65;;;24.30;1.00;;;;;;5031977;28;20037;-80
2023/10/09 15:43:35;;;;;;;0.43;0.43;;;24.20;1.00;;;;;;5030908;28;20041;-80
2023/10/09 15:46:02;;;;;;;0.32;0.32;;;24.10;1.00;;;;;;5031611;28;20049;-79
2023/10/09 15:48:28;;;;;;;3.75;1.33;;;24.10;1.00;;;;;;5037125;28;20038;-81
2023/10/09 15:50:54;;;;;;;2.42;1.42;;;24.00;1.00;;;;;;5032053;28;20048;-83
2023/10/09 15:53:21;;;;;;;2.58;0.95;;;24.00;1.00;;;;;;5033653;28;20033;-83
2023/10/09 15:55:51;;;;;;;0.28;0.28;;;23.90;1.00;;;;;;5031161;28;20048;-80
2023/10/09 15:58:17;;;;;;;;;;;23.90;1.00;;;;;;5030276;28;20046;-80
2023/10/09 16:00:45;;;;;;;3.50;1.05;;;23.80;1.00;;;;;;5031695;28;19961;-83
2023/10/09 16:03:13;;;;;;;1.20;0.93;;;23.70;1.00;;;;;;5030610;28;20395;-84
2023/10/09 16:05:40;;;;;;;0.20;0.20;;;23.60;1.00;;;;;;5024512;28;20037;-84
2023/10/09 16:08:08;;;;;;;0.73;0.40;;;23.60;1.00;;;;;;5031993;28;20033;-83
2023/10/09 16:10:35;;;;;;;0.93;0.90;;;23.50;1.00;;;;;;5026489;28;20036;-82
2023/10/09 16:13:02;;;;;;;1.17;0.82;;;23.40;1.00;;;;;;5031147;28;20364;-81